sensor_id;sensor_type;location;lat;lon;timestamp;pressure;altitude;pressure_sealevel;temperature;humidity
11124;BME280;5616;42.692;23.312;2022-08-11T00:01:43;95267.72;;;21.22;72.81
11124;BME280;5616;42.692;23.312;2022-08-11T00:04:12;95258.50;;;21.20;72.57
11124;BME280;5616;42.692;23.312;2022-08-11T00:06:40;95267.72;;;21.22;72.62
11124;BME280;5616;42.692;23.312;2022-08-11T00:09:14;95270.59;;;21.21;72.82
11124;BME280;5616;42.692;23.312;2022-08-11T00:11:45;95263.13;;;21.13;73.35
11124;BME280;5616;42.692;23.312;2022-08-11T00:14:16;95267.19;;;21.04;74.19
11124;BME280;5616;42.692;23.312;2022-08-11T00:16:52;95267.91;;;20.83;75.07
11124;BME280;5616;42.692;23.312;2022-08-11T00:19:22;95260.91;;;20.71;75.56
11124;BME280;5616;42.692;23.312;2022-08-11T00:21:50;95264.72;;;20.81;75.42
11124;BME280;5616;42.692;23.312;2022-08-11T00:24:21;95270.19;;;20.79;75.72
11124;BME280;5616;42.692;23.312;2022-08-11T00:26:50;95259.78;;;20.84;75.32
11124;BME280;5616;42.692;23.312;2022-08-11T00:29:18;95262.19;;;20.86;75.58
11124;BME280;5616;42.692;23.312;2022-08-11T00:31:47;95256.47;;;20.89;75.05
11124;BME280;5616;42.692;23.312;2022-08-11T00:34:20;95252.84;;;20.95;74.97
11124;BME280;5616;42.692;23.312;2022-08-11T00:36:50;95251.22;;;20.89;75.51
11124;BME280;5616;42.692;23.312;2022-08-11T00:39:22;95248.81;;;20.70;76.11
11124;BME280;5616;42.692;23.312;2022-08-11T00:42:07;95254.06;;;20.70;76.19
11124;BME280;5616;42.692;23.312;2022-08-11T00:44:44;95251.19;;;20.72;76.12
11124;BME280;5616;42.692;23.312;2022-08-11T00:47:23;95249.94;;;20.74;76.31
11124;BME280;5616;42.692;23.312;2022-08-11T00:50:03;95250.72;;;20.75;75.71
11124;BME280;5616;42.692;23.312;2022-08-11T00:52:58;95252.56;;;20.74;76.17
11124;BME280;5616;42.692;23.312;2022-08-11T00:55:48;95249.19;;;20.79;75.76
11124;BME280;5616;42.692;23.312;2022-08-11T00:58:50;95252.63;;;20.80;75.75
11124;BME280;5616;42.692;23.312;2022-08-11T01:01:33;95250.06;;;20.85;75.59
11124;BME280;5616;42.692;23.312;2022-08-11T01:10:56;95255.97;;;20.58;76.89
11124;BME280;5616;42.692;23.312;2022-08-11T01:13:47;95248.97;;;20.64;76.85
11124;BME280;5616;42.692;23.312;2022-08-11T01:19:56;95248.09;;;20.75;76.31
11124;BME280;5616;42.692;23.312;2022-08-11T01:23:04;95245.00;;;20.78;76.21
11124;BME280;5616;42.692;23.312;2022-08-11T01:25:57;95246.03;;;20.60;77.22
11124;BME280;5616;42.692;23.312;2022-08-11T01:29:07;95248.31;;;20.40;78.10
11124;BME280;5616;42.692;23.312;2022-08-11T01:31:59;95242.16;;;20.46;78.15
11124;BME280;5616;42.692;23.312;2022-08-11T01:38:03;95236.22;;;20.39;78.63
11124;BME280;5616;42.692;23.312;2022-08-11T01:44:03;95216.25;;;20.22;79.14
11124;BME280;5616;42.692;23.312;2022-08-11T01:47:07;95235.94;;;20.36;78.73
11124;BME280;5616;42.692;23.312;2022-08-11T01:50:07;95239.53;;;20.46;78.07
11124;BME280;5616;42.692;23.312;2022-08-11T01:52:46;95233.31;;;20.52;77.76
11124;BME280;5616;42.692;23.312;2022-08-11T01:55:25;95236.97;;;20.51;77.86
11124;BME280;5616;42.692;23.312;2022-08-11T01:58:02;95242.22;;;20.51;77.65
11124;BME280;5616;42.692;23.312;2022-08-11T02:00:44;95239.81;;;20.50;77.27
11124;BME280;5616;42.692;23.312;2022-08-11T02:03:17;95237.34;;;20.27;78.62
11124;BME280;5616;42.692;23.312;2022-08-11T02:06:00;95233.88;;;20.38;78.27
11124;BME280;5616;42.692;23.312;2022-08-11T02:08:55;95231.97;;;20.33;78.15
11124;BME280;5616;42.692;23.312;2022-08-11T02:11:24;95229.34;;;20.33;78.52
11124;BME280;5616;42.692;23.312;2022-08-11T02:14:02;95238.84;;;20.23;78.99
11124;BME280;5616;42.692;23.312;2022-08-11T02:16:42;95234.34;;;20.35;78.21
11124;BME280;5616;42.692;23.312;2022-08-11T02:19:21;95234.16;;;20.25;79.10
11124;BME280;5616;42.692;23.312;2022-08-11T02:22:14;95235.75;;;20.26;78.96
11124;BME280;5616;42.692;23.312;2022-08-11T02:25:03;95235.53;;;20.27;79.45
11124;BME280;5616;42.692;23.312;2022-08-11T02:27:38;95239.81;;;20.33;78.93
11124;BME280;5616;42.692;23.312;2022-08-11T02:30:10;95225.38;;;20.31;78.66
11124;BME280;5616;42.692;23.312;2022-08-11T02:32:46;95232.53;;;20.07;79.73
11124;BME280;5616;42.692;23.312;2022-08-11T02:35:41;95243.06;;;19.95;80.89
11124;BME280;5616;42.692;23.312;2022-08-11T02:38:17;95243.97;;;19.89;81.17
11124;BME280;5616;42.692;23.312;2022-08-11T02:40:55;95237.63;;;19.85;81.62
11124;BME280;5616;42.692;23.312;2022-08-11T02:43:40;95221.13;;;19.73;82.11
11124;BME280;5616;42.692;23.312;2022-08-11T02:46:19;95235.94;;;19.79;81.53
11124;BME280;5616;42.692;23.312;2022-08-11T02:48:58;95235.09;;;19.90;81.45
11124;BME280;5616;42.692;23.312;2022-08-11T02:51:58;95232.75;;;19.77;81.55
11124;BME280;5616;42.692;23.312;2022-08-11T02:54:33;95226.09;;;19.86;81.12
11124;BME280;5616;42.692;23.312;2022-08-11T02:57:08;95238.19;;;19.87;81.05
11124;BME280;5616;42.692;23.312;2022-08-11T02:59:44;95236.03;;;19.84;81.07
11124;BME280;5616;42.692;23.312;2022-08-11T03:02:27;95233.28;;;19.91;80.63
11124;BME280;5616;42.692;23.312;2022-08-11T03:05:04;95237.06;;;19.83;81.12
11124;BME280;5616;42.692;23.312;2022-08-11T03:07:40;95229.81;;;19.74;81.43
11124;BME280;5616;42.692;23.312;2022-08-11T03:10:21;95242.25;;;19.67;82.37
11124;BME280;5616;42.692;23.312;2022-08-11T03:12:53;95242.63;;;19.59;82.69
11124;BME280;5616;42.692;23.312;2022-08-11T03:15:48;95237.22;;;19.65;82.20
11124;BME280;5616;42.692;23.312;2022-08-11T03:18:41;95246.66;;;19.78;81.41
11124;BME280;5616;42.692;23.312;2022-08-11T03:21:19;95240.38;;;19.79;81.27
11124;BME280;5616;42.692;23.312;2022-08-11T03:23:52;95244.97;;;19.72;81.72
11124;BME280;5616;42.692;23.312;2022-08-11T03:26:27;95248.59;;;19.71;81.79
11124;BME280;5616;42.692;23.312;2022-08-11T03:29:03;95238.75;;;19.49;82.71
11124;BME280;5616;42.692;23.312;2022-08-11T03:31:35;95237.19;;;19.48;83.14
11124;BME280;5616;42.692;23.312;2022-08-11T03:34:05;95236.03;;;19.44;83.23
11124;BME280;5616;42.692;23.312;2022-08-11T03:37:04;95239.09;;;19.53;82.61
11124;BME280;5616;42.692;23.312;2022-08-11T03:39:43;95235.66;;;19.64;82.33
11124;BME280;5616;42.692;23.312;2022-08-11T03:42:23;95236.38;;;19.48;82.73
11124;BME280;5616;42.692;23.312;2022-08-11T03:45:02;95247.22;;;19.40;83.18
11124;BME280;5616;42.692;23.312;2022-08-11T03:50:46;95247.63;;;19.37;83.84
11124;BME280;5616;42.692;23.312;2022-08-11T03:53:34;95241.28;;;19.44;83.53
11124;BME280;5616;42.692;23.312;2022-08-11T03:59:37;95249.44;;;19.36;83.60
11124;BME280;5616;42.692;23.312;2022-08-11T04:02:56;95251.63;;;19.51;83.00
11124;BME280;5616;42.692;23.312;2022-08-11T04:05:48;95251.38;;;19.52;82.70
11124;BME280;5616;42.692;23.312;2022-08-11T04:15:03;95255.91;;;19.69;82.18
11124;BME280;5616;42.692;23.312;2022-08-11T04:21:05;95249.78;;;19.91;80.79
11124;BME280;5616;42.692;23.312;2022-08-11T04:23:54;95254.66;;;19.99;80.16
11124;BME280;5616;42.692;23.312;2022-08-11T04:27:18;95243.00;;;20.07;79.13
11124;BME280;5616;42.692;23.312;2022-08-11T04:30:04;95259.13;;;20.15;79.03
11124;BME280;5616;42.692;23.312;2022-08-11T04:32:51;95258.78;;;20.24;78.34
11124;BME280;5616;42.692;23.312;2022-08-11T04:35:38;95254.75;;;20.33;77.61
11124;BME280;5616;42.692;23.312;2022-08-11T04:38:37;95254.59;;;20.39;77.12
11124;BME280;5616;42.692;23.312;2022-08-11T04:41:27;95261.91;;;20.37;77.16
11124;BME280;5616;42.692;23.312;2022-08-11T04:44:31;95255.34;;;20.51;76.46
11124;BME280;5616;42.692;23.312;2022-08-11T04:47:25;95260.19;;;20.59;75.71
11124;BME280;5616;42.692;23.312;2022-08-11T04:50:26;95257.66;;;20.64;75.26
11124;BME280;5616;42.692;23.312;2022-08-11T04:53:25;95259.38;;;20.75;75.09
11124;BME280;5616;42.692;23.312;2022-08-11T04:56:14;95261.06;;;20.82;75.83
11124;BME280;5616;42.692;23.312;2022-08-11T04:59:22;95262.81;;;20.93;75.42
11124;BME280;5616;42.692;23.312;2022-08-11T05:05:34;95269.00;;;21.20;73.00
11124;BME280;5616;42.692;23.312;2022-08-11T05:11:22;95262.13;;;21.36;72.36
11124;BME280;5616;42.692;23.312;2022-08-11T05:14:17;95261.81;;;21.32;73.34
11124;BME280;5616;42.692;23.312;2022-08-11T05:17:10;95260.44;;;21.46;71.70
11124;BME280;5616;42.692;23.312;2022-08-11T05:19:56;95262.63;;;21.54;71.16
11124;BME280;5616;42.692;23.312;2022-08-11T05:22:45;95263.59;;;21.48;72.02
11124;BME280;5616;42.692;23.312;2022-08-11T05:25:30;95271.13;;;21.61;71.13
11124;BME280;5616;42.692;23.312;2022-08-11T05:28:20;95265.56;;;21.58;71.70
11124;BME280;5616;42.692;23.312;2022-08-11T05:31:08;95267.38;;;21.57;71.99
11124;BME280;5616;42.692;23.312;2022-08-11T05:33:59;95262.56;;;21.71;71.07
11124;BME280;5616;42.692;23.312;2022-08-11T05:36:49;95261.63;;;21.82;70.74
11124;BME280;5616;42.692;23.312;2022-08-11T05:39:20;95256.09;;;22.00;70.12
11124;BME280;5616;42.692;23.312;2022-08-11T05:42:06;95260.41;;;22.11;69.01
11124;BME280;5616;42.692;23.312;2022-08-11T05:44:54;95257.84;;;22.16;68.13
11124;BME280;5616;42.692;23.312;2022-08-11T05:47:41;95258.88;;;22.15;68.56
11124;BME280;5616;42.692;23.312;2022-08-11T05:50:26;95255.75;;;22.18;68.34
11124;BME280;5616;42.692;23.312;2022-08-11T05:53:14;95263.19;;;22.26;68.51
11124;BME280;5616;42.692;23.312;2022-08-11T05:56:03;95255.09;;;22.33;68.85
11124;BME280;5616;42.692;23.312;2022-08-11T05:58:47;95261.03;;;22.50;67.76
11124;BME280;5616;42.692;23.312;2022-08-11T06:01:21;95259.94;;;22.68;66.96
11124;BME280;5616;42.692;23.312;2022-08-11T06:03:50;95255.53;;;22.78;67.08
11124;BME280;5616;42.692;23.312;2022-08-11T06:06:36;95259.31;;;22.92;65.78
11124;BME280;5616;42.692;23.312;2022-08-11T06:09:06;95260.47;;;23.06;65.26
11124;BME280;5616;42.692;23.312;2022-08-11T06:11:40;95258.94;;;23.21;65.18
11124;BME280;5616;42.692;23.312;2022-08-11T06:14:09;95253.78;;;23.36;64.14
11124;BME280;5616;42.692;23.312;2022-08-11T06:16:36;95249.63;;;23.45;63.71
11124;BME280;5616;42.692;23.312;2022-08-11T06:19:04;95248.09;;;23.49;65.03
11124;BME280;5616;42.692;23.312;2022-08-11T06:21:33;95243.72;;;23.80;63.77
11124;BME280;5616;42.692;23.312;2022-08-11T06:24:02;95244.53;;;23.90;63.87
11124;BME280;5616;42.692;23.312;2022-08-11T06:26:33;95240.09;;;24.06;62.44
11124;BME280;5616;42.692;23.312;2022-08-11T06:29:00;95243.34;;;24.18;61.37
11124;BME280;5616;42.692;23.312;2022-08-11T06:31:28;95237.28;;;24.48;61.05
11124;BME280;5616;42.692;23.312;2022-08-11T06:34:08;95238.38;;;24.82;59.60
11124;BME280;5616;42.692;23.312;2022-08-11T06:36:41;95241.53;;;25.04;58.30
11124;BME280;5616;42.692;23.312;2022-08-11T06:39:19;95243.34;;;25.19;57.80
11124;BME280;5616;42.692;23.312;2022-08-11T06:41:52;95238.03;;;25.39;57.25
11124;BME280;5616;42.692;23.312;2022-08-11T06:44:39;95240.31;;;25.66;55.99
11124;BME280;5616;42.692;23.312;2022-08-11T06:47:09;95244.06;;;25.60;57.20
11124;BME280;5616;42.692;23.312;2022-08-11T06:49:42;95243.34;;;25.98;55.60
11124;BME280;5616;42.692;23.312;2022-08-11T06:52:32;95245.97;;;26.52;53.05
11124;BME280;5616;42.692;23.312;2022-08-11T06:55:06;95238.09;;;26.81;52.48
11124;BME280;5616;42.692;23.312;2022-08-11T06:57:36;95241.72;;;27.18;50.36
11124;BME280;5616;42.692;23.312;2022-08-11T07:00:35;95247.44;;;28.02;47.35
11124;BME280;5616;42.692;23.312;2022-08-11T07:03:06;95236.63;;;28.35;45.36
11124;BME280;5616;42.692;23.312;2022-08-11T07:05:41;95228.72;;;28.49;45.71
11124;BME280;5616;42.692;23.312;2022-08-11T07:15:43;95253.56;;;29.55;43.16
11124;BME280;5616;42.692;23.312;2022-08-11T07:21:54;95255.50;;;29.77;43.20
11124;BME280;5616;42.692;23.312;2022-08-11T07:24:47;95250.38;;;30.21;41.61
11124;BME280;5616;42.692;23.312;2022-08-11T07:27:37;95243.03;;;30.40;41.13
11124;BME280;5616;42.692;23.312;2022-08-11T07:30:25;95252.03;;;30.88;39.58
11124;BME280;5616;42.692;23.312;2022-08-11T07:32:56;95242.44;;;31.10;38.97
11124;BME280;5616;42.692;23.312;2022-08-11T07:35:28;95245.88;;;31.63;39.15
11124;BME280;5616;42.692;23.312;2022-08-11T07:38:01;95243.59;;;31.96;38.95
11124;BME280;5616;42.692;23.312;2022-08-11T07:40:29;95243.41;;;32.66;36.96
11124;BME280;5616;42.692;23.312;2022-08-11T07:42:58;95242.66;;;33.38;35.96
11124;BME280;5616;42.692;23.312;2022-08-11T07:45:26;95240.56;;;33.60;34.83
11124;BME280;5616;42.692;23.312;2022-08-11T07:48:19;95237.06;;;33.98;35.22
11124;BME280;5616;42.692;23.312;2022-08-11T07:51:03;95236.25;;;33.68;34.70
11124;BME280;5616;42.692;23.312;2022-08-11T07:53:50;95236.63;;;33.58;33.43
11124;BME280;5616;42.692;23.312;2022-08-11T07:56:17;95232.59;;;34.31;31.66
11124;BME280;5616;42.692;23.312;2022-08-11T07:58:44;95236.06;;;34.52;32.19
11124;BME280;5616;42.692;23.312;2022-08-11T08:01:30;95236.31;;;35.00;31.05
11124;BME280;5616;42.692;23.312;2022-08-11T08:04:17;95232.69;;;35.29;29.98
11124;BME280;5616;42.692;23.312;2022-08-11T08:07:03;95228.09;;;36.39;30.12
11124;BME280;5616;42.692;23.312;2022-08-11T08:09:48;95224.09;;;37.44;27.81
11124;BME280;5616;42.692;23.312;2022-08-11T08:12:33;95220.16;;;39.15;25.41
11124;BME280;5616;42.692;23.312;2022-08-11T08:15:19;95220.19;;;40.06;23.75
11124;BME280;5616;42.692;23.312;2022-08-11T08:18:05;95238.34;;;41.28;22.79
11124;BME280;5616;42.692;23.312;2022-08-11T08:20:37;95235.47;;;40.80;23.05
11124;BME280;5616;42.692;23.312;2022-08-11T08:23:05;95232.38;;;41.12;22.38
11124;BME280;5616;42.692;23.312;2022-08-11T08:25:34;95217.56;;;39.41;24.09
11124;BME280;5616;42.692;23.312;2022-08-11T08:28:06;95222.22;;;39.63;24.39
11124;BME280;5616;42.692;23.312;2022-08-11T08:30:36;95225.63;;;40.95;22.46
11124;BME280;5616;42.692;23.312;2022-08-11T08:33:18;95217.94;;;41.01;22.82
11124;BME280;5616;42.692;23.312;2022-08-11T08:35:50;95217.91;;;41.34;22.08
11124;BME280;5616;42.692;23.312;2022-08-11T08:38:36;95219.50;;;38.80;24.69
11124;BME280;5616;42.692;23.312;2022-08-11T08:41:04;95217.13;;;36.56;27.12
11124;BME280;5616;42.692;23.312;2022-08-11T08:43:32;95215.88;;;35.08;30.05
11124;BME280;5616;42.692;23.312;2022-08-11T08:46:00;95210.13;;;35.67;29.91
11124;BME280;5616;42.692;23.312;2022-08-11T08:48:30;95206.66;;;38.19;26.67
11124;BME280;5616;42.692;23.312;2022-08-11T08:51:02;95212.75;;;40.29;24.82
11124;BME280;5616;42.692;23.312;2022-08-11T08:53:49;95204.75;;;40.66;22.91
11124;BME280;5616;42.692;23.312;2022-08-11T08:56:17;95208.69;;;40.42;23.55
11124;BME280;5616;42.692;23.312;2022-08-11T08:58:47;95207.03;;;41.30;22.48
11124;BME280;5616;42.692;23.312;2022-08-11T09:01:18;95209.06;;;40.41;23.33
11124;BME280;5616;42.692;23.312;2022-08-11T09:03:47;95202.97;;;39.46;24.38
11124;BME280;5616;42.692;23.312;2022-08-11T09:06:16;95202.81;;;37.54;26.60
11124;BME280;5616;42.692;23.312;2022-08-11T09:08:44;95213.81;;;35.98;28.20
11124;BME280;5616;42.692;23.312;2022-08-11T09:11:12;95203.47;;;36.37;27.89
11124;BME280;5616;42.692;23.312;2022-08-11T09:13:58;95199.25;;;37.66;25.98
11124;BME280;5616;42.692;23.312;2022-08-11T09:16:25;95196.16;;;38.33;25.82
11124;BME280;5616;42.692;23.312;2022-08-11T09:18:52;95189.94;;;38.87;24.59
11124;BME280;5616;42.692;23.312;2022-08-11T09:21:21;95184.84;;;39.69;23.65
11124;BME280;5616;42.692;23.312;2022-08-11T09:23:49;95194.28;;;39.59;23.06
11124;BME280;5616;42.692;23.312;2022-08-11T09:26:34;95183.03;;;37.03;26.94
11124;BME280;5616;42.692;23.312;2022-08-11T09:29:20;95181.16;;;35.60;28.10
11124;BME280;5616;42.692;23.312;2022-08-11T09:31:48;95191.28;;;35.18;29.65
11124;BME280;5616;42.692;23.312;2022-08-11T09:34:15;95182.00;;;34.83;29.91
11124;BME280;5616;42.692;23.312;2022-08-11T09:36:44;95172.81;;;34.30;30.64
11124;BME280;5616;42.692;23.312;2022-08-11T09:39:27;95179.97;;;33.76;33.29
11124;BME280;5616;42.692;23.312;2022-08-11T09:42:12;95176.28;;;33.14;31.76
11124;BME280;5616;42.692;23.312;2022-08-11T09:44:41;95176.22;;;32.76;32.48
11124;BME280;5616;42.692;23.312;2022-08-11T09:47:17;95173.72;;;32.28;34.52
11124;BME280;5616;42.692;23.312;2022-08-11T09:49:45;95173.50;;;31.82;35.38
11124;BME280;5616;42.692;23.312;2022-08-11T09:52:17;95176.59;;;30.66;37.50
11124;BME280;5616;42.692;23.312;2022-08-11T09:54:46;95168.94;;;30.51;38.66
11124;BME280;5616;42.692;23.312;2022-08-11T09:57:17;95167.56;;;31.06;36.94
11124;BME280;5616;42.692;23.312;2022-08-11T10:00:04;95167.97;;;31.30;35.79
11124;BME280;5616;42.692;23.312;2022-08-11T10:02:32;95162.50;;;31.35;35.51
11124;BME280;5616;42.692;23.312;2022-08-11T10:05:01;95153.88;;;31.38;36.12
11124;BME280;5616;42.692;23.312;2022-08-11T10:07:46;95159.47;;;31.20;37.06
11124;BME280;5616;42.692;23.312;2022-08-11T10:10:18;95148.69;;;30.94;36.71
11124;BME280;5616;42.692;23.312;2022-08-11T10:12:49;95149.00;;;30.26;38.73
11124;BME280;5616;42.692;23.312;2022-08-11T10:15:18;95153.88;;;30.68;37.15
11124;BME280;5616;42.692;23.312;2022-08-11T10:18:04;95151.16;;;30.90;36.05
11124;BME280;5616;42.692;23.312;2022-08-11T10:20:51;95152.53;;;31.10;37.24
11124;BME280;5616;42.692;23.312;2022-08-11T10:23:23;95160.06;;;31.17;35.31
11124;BME280;5616;42.692;23.312;2022-08-11T10:26:08;95157.13;;;30.65;35.35
11124;BME280;5616;42.692;23.312;2022-08-11T10:28:52;95149.75;;;30.62;36.75
11124;BME280;5616;42.692;23.312;2022-08-11T10:31:20;95156.97;;;30.40;38.39
11124;BME280;5616;42.692;23.312;2022-08-11T10:34:20;95150.81;;;29.67;39.32
11124;BME280;5616;42.692;23.312;2022-08-11T10:36:49;95153.03;;;30.01;37.44
11124;BME280;5616;42.692;23.312;2022-08-11T10:39:19;95159.34;;;30.27;36.08
11124;BME280;5616;42.692;23.312;2022-08-11T10:41:47;95152.34;;;30.32;36.00
11124;BME280;5616;42.692;23.312;2022-08-11T10:44:37;95153.88;;;30.46;36.67
11124;BME280;5616;42.692;23.312;2022-08-11T10:47:05;95148.28;;;30.34;36.01
11124;BME280;5616;42.692;23.312;2022-08-11T10:49:51;95145.19;;;30.18;35.90
11124;BME280;5616;42.692;23.312;2022-08-11T10:52:34;95137.06;;;30.01;36.84
11124;BME280;5616;42.692;23.312;2022-08-11T10:55:20;95125.56;;;29.92;37.04
11124;BME280;5616;42.692;23.312;2022-08-11T10:58:06;95123.97;;;29.78;36.64
11124;BME280;5616;42.692;23.312;2022-08-11T11:00:52;95122.22;;;29.87;36.62
11124;BME280;5616;42.692;23.312;2022-08-11T11:03:21;95109.88;;;29.77;38.15
11124;BME280;5616;42.692;23.312;2022-08-11T11:05:51;95126.19;;;29.62;38.37
11124;BME280;5616;42.692;23.312;2022-08-11T11:08:21;95127.53;;;29.73;39.88
11124;BME280;5616;42.692;23.312;2022-08-11T11:11:11;95119.41;;;30.05;38.94
11124;BME280;5616;42.692;23.312;2022-08-11T11:13:43;95114.16;;;30.00;38.54
11124;BME280;5616;42.692;23.312;2022-08-11T11:16:41;95119.09;;;30.07;36.65
11124;BME280;5616;42.692;23.312;2022-08-11T11:19:27;95109.44;;;30.19;38.09
11124;BME280;5616;42.692;23.312;2022-08-11T11:21:55;95108.25;;;30.25;37.06
11124;BME280;5616;42.692;23.312;2022-08-11T11:24:52;95125.44;;;30.19;36.63
11124;BME280;5616;42.692;23.312;2022-08-11T11:27:31;95111.97;;;29.66;37.94
11124;BME280;5616;42.692;23.312;2022-08-11T11:30:04;95115.50;;;29.76;37.13
11124;BME280;5616;42.692;23.312;2022-08-11T11:32:40;95112.31;;;29.51;37.24
11124;BME280;5616;42.692;23.312;2022-08-11T11:35:36;95108.22;;;29.81;39.24
11124;BME280;5616;42.692;23.312;2022-08-11T11:38:06;95117.94;;;29.50;38.02
11124;BME280;5616;42.692;23.312;2022-08-11T11:40:35;95115.78;;;29.74;37.07
11124;BME280;5616;42.692;23.312;2022-08-11T11:43:04;95111.03;;;29.98;38.39
11124;BME280;5616;42.692;23.312;2022-08-11T11:45:31;95114.53;;;30.29;36.06
11124;BME280;5616;42.692;23.312;2022-08-11T11:47:59;95100.38;;;30.20;36.18
11124;BME280;5616;42.692;23.312;2022-08-11T11:50:29;95100.03;;;30.36;36.35
11124;BME280;5616;42.692;23.312;2022-08-11T11:52:57;95101.22;;;30.29;37.34
11124;BME280;5616;42.692;23.312;2022-08-11T11:55:27;95092.38;;;30.43;39.80
11124;BME280;5616;42.692;23.312;2022-08-11T11:57:56;95098.25;;;30.53;38.02
11124;BME280;5616;42.692;23.312;2022-08-11T12:00:43;95095.25;;;30.46;40.43
11124;BME280;5616;42.692;23.312;2022-08-11T12:03:28;95100.03;;;30.58;37.70
11124;BME280;5616;42.692;23.312;2022-08-11T12:05:56;95102.63;;;30.49;38.47
11124;BME280;5616;42.692;23.312;2022-08-11T12:08:24;95110.91;;;30.48;37.74
11124;BME280;5616;42.692;23.312;2022-08-11T12:10:54;95105.56;;;30.39;38.82
11124;BME280;5616;42.692;23.312;2022-08-11T12:13:45;95091.91;;;29.96;39.02
11124;BME280;5616;42.692;23.312;2022-08-11T12:16:14;95088.38;;;29.24;40.91
11124;BME280;5616;42.692;23.312;2022-08-11T12:18:42;95080.28;;;29.29;41.44
11124;BME280;5616;42.692;23.312;2022-08-11T12:21:13;95089.50;;;29.59;40.45
11124;BME280;5616;42.692;23.312;2022-08-11T12:23:42;95081.03;;;29.57;40.05
11124;BME280;5616;42.692;23.312;2022-08-11T12:26:28;95086.41;;;29.30;42.81
11124;BME280;5616;42.692;23.312;2022-08-11T12:29:13;95081.66;;;28.72;43.42
11124;BME280;5616;42.692;23.312;2022-08-11T12:31:43;95068.25;;;28.64;42.53
11124;BME280;5616;42.692;23.312;2022-08-11T12:34:11;95086.75;;;28.55;42.39
11124;BME280;5616;42.692;23.312;2022-08-11T12:36:40;95092.22;;;28.45;42.64
11124;BME280;5616;42.692;23.312;2022-08-11T12:39:09;95093.53;;;28.61;42.84
11124;BME280;5616;42.692;23.312;2022-08-11T12:41:38;95103.75;;;28.54;42.83
11124;BME280;5616;42.692;23.312;2022-08-11T12:44:26;95100.06;;;28.69;41.70
11124;BME280;5616;42.692;23.312;2022-08-11T12:47:17;95094.28;;;28.48;41.65
11124;BME280;5616;42.692;23.312;2022-08-11T12:49:47;95105.59;;;28.40;42.72
11124;BME280;5616;42.692;23.312;2022-08-11T12:52:36;95109.09;;;27.84;45.12
11124;BME280;5616;42.692;23.312;2022-08-11T12:55:10;95106.78;;;27.17;47.01
11124;BME280;5616;42.692;23.312;2022-08-11T12:57:41;95104.22;;;27.30;46.58
11124;BME280;5616;42.692;23.312;2022-08-11T13:00:29;95103.75;;;27.05;46.99
11124;BME280;5616;42.692;23.312;2022-08-11T13:03:19;95100.41;;;27.18;46.99
11124;BME280;5616;42.692;23.312;2022-08-11T13:06:04;95098.69;;;27.27;46.50
11124;BME280;5616;42.692;23.312;2022-08-11T13:08:33;95103.81;;;27.00;49.42
11124;BME280;5616;42.692;23.312;2022-08-11T13:11:01;95103.81;;;27.00;49.35
11124;BME280;5616;42.692;23.312;2022-08-11T13:13:55;95102.00;;;26.95;48.06
11124;BME280;5616;42.692;23.312;2022-08-11T13:16:23;95097.84;;;26.89;48.22
11124;BME280;5616;42.692;23.312;2022-08-11T13:18:52;95096.59;;;26.77;49.51
11124;BME280;5616;42.692;23.312;2022-08-11T13:21:20;95099.84;;;26.97;48.53
11124;BME280;5616;42.692;23.312;2022-08-11T13:23:48;95087.91;;;27.00;46.85
11124;BME280;5616;42.692;23.312;2022-08-11T13:26:16;95086.75;;;27.06;46.59
11124;BME280;5616;42.692;23.312;2022-08-11T13:28:43;95091.88;;;27.21;46.10
11124;BME280;5616;42.692;23.312;2022-08-11T13:31:10;95083.06;;;27.49;44.81
11124;BME280;5616;42.692;23.312;2022-08-11T13:33:41;95082.91;;;27.41;45.37
11124;BME280;5616;42.692;23.312;2022-08-11T13:36:11;95075.09;;;27.49;46.24
11124;BME280;5616;42.692;23.312;2022-08-11T13:38:41;95072.47;;;27.68;43.86
11124;BME280;5616;42.692;23.312;2022-08-11T13:41:09;95080.13;;;27.69;44.13
11124;BME280;5616;42.692;23.312;2022-08-11T13:43:51;95075.38;;;27.48;44.94
11124;BME280;5616;42.692;23.312;2022-08-11T13:46:19;95071.97;;;27.47;43.85
11124;BME280;5616;42.692;23.312;2022-08-11T13:48:48;95073.19;;;27.73;41.94
11124;BME280;5616;42.692;23.312;2022-08-11T13:51:16;95068.00;;;27.63;43.44
11124;BME280;5616;42.692;23.312;2022-08-11T13:53:58;95070.16;;;27.80;41.80
11124;BME280;5616;42.692;23.312;2022-08-11T13:56:26;95064.91;;;27.93;41.48
11124;BME280;5616;42.692;23.312;2022-08-11T13:58:54;95057.88;;;28.03;40.35
11124;BME280;5616;42.692;23.312;2022-08-11T14:01:23;95059.22;;;28.32;40.67
11124;BME280;5616;42.692;23.312;2022-08-11T14:03:52;95058.53;;;28.27;40.49
11124;BME280;5616;42.692;23.312;2022-08-11T14:06:21;95061.09;;;28.32;39.50
11124;BME280;5616;42.692;23.312;2022-08-11T14:08:50;95056.22;;;28.07;41.32
11124;BME280;5616;42.692;23.312;2022-08-11T14:11:18;95053.78;;;28.24;39.80
11124;BME280;5616;42.692;23.312;2022-08-11T14:14:04;95061.00;;;28.37;39.02
11124;BME280;5616;42.692;23.312;2022-08-11T14:16:38;95057.41;;;28.14;40.38
11124;BME280;5616;42.692;23.312;2022-08-11T14:19:08;95055.38;;;28.25;39.95
11124;BME280;5616;42.692;23.312;2022-08-11T14:21:41;95057.38;;;28.33;39.58
11124;BME280;5616;42.692;23.312;2022-08-11T14:24:27;95054.47;;;28.16;40.31
11124;BME280;5616;42.692;23.312;2022-08-11T14:26:55;95057.72;;;28.13;40.92
11124;BME280;5616;42.692;23.312;2022-08-11T14:29:24;95061.63;;;28.34;40.56
11124;BME280;5616;42.692;23.312;2022-08-11T14:31:54;95056.31;;;28.02;41.77
11124;BME280;5616;42.692;23.312;2022-08-11T14:34:23;95050.66;;;28.22;41.71
11124;BME280;5616;42.692;23.312;2022-08-11T14:36:54;95053.19;;;28.13;43.11
11124;BME280;5616;42.692;23.312;2022-08-11T14:39:24;95037.97;;;28.00;43.25
11124;BME280;5616;42.692;23.312;2022-08-11T14:41:53;95048.19;;;27.74;43.54
11124;BME280;5616;42.692;23.312;2022-08-11T14:44:41;95050.28;;;27.77;43.98
11124;BME280;5616;42.692;23.312;2022-08-11T14:47:27;95050.06;;;27.74;44.26
11124;BME280;5616;42.692;23.312;2022-08-11T14:49:56;95036.28;;;27.34;45.73